Terminal Aerodrome Forecast
Issued by NWS

Home | Current Version | Previous Version | Text Only | Print | Product List | Glossary On
Versions: 1 2 3 4 5 6 7 8 9 10 11 12 13 14 15 16 17 18 19 20 21 22 23 24
000
FTUS43 KIND 281132
TAFLAF
TAF
KLAF 281132Z 2812/2912 08004KT 6SM BR SCT030
     FM281400 09004KT P6SM FEW030
     FM281600 09004KT P6SM SCT040 SCT250
     FM290800 24004KT 4SM BR VCTS BKN040CB
      AMD LTD TO CLD VIS AND WIND TIL 281300=

USA.gov is the U.S. government's official web portal to all federal, state and local government web resources and services.